Pittsburgh, PA (15221)

2:12 AM EST on December 22, 2014 (GMT -0500)
Churchill | Change Station
CLOSE
Current Station
Personal Weather Station
Location: Pittsburgh, PA
Elevation: 1175 ft
Nearby Weather Stations

Elev 1175 ft 40.43 °N, 79.85 °W | Updated 12 minutes ago

Clear
Clear
24.4 °F
Feels Like 24 °F
N
0.0
Wind Variable Wind from ENE

Today
High -- | Low -- °F
--% Chance of Precip.
Yesterday
High -- | Low -- °F
Precip. -- in
7:39 AM 4:56 PM
New Moon, 0% visible
Pressure 30.20 in
Visibility 8.0 miles
Clouds Clear
Windchill 24 °F
Dew Point 21 °F
Humidity 85%
Rainfall 0.00 in
Snow Depth Not available.
UV 0 out of 12
Pollen .10 out of 12
Air Quality Not available.
Flu Activity Not available.
METAR KAGC 220653Z AUTO 09004KT 8SM CLR M03/M07 A3014 RMK AO2 SLP226 T10331072 TSNO

More Conditions Fewer Conditions

Pressure 30.20 in
Visibility 8.0 miles
Clouds Clear
Windchill 24 °F
Dew Point 21 °F
Humidity 85%
Rainfall 0.00 in
Snow Depth Not available.
UV 0 out of 12
Pollen .10 out of 12
Air Quality Not available.
Flu Activity Not available.
METAR KAGC 220653Z AUTO 09004KT 8SM CLR M03/M07 A3014 RMK AO2 SLP226 T10331072 TSNO

More Conditions Fewer Conditions

10-Day Weather Forecast

Almanac

Astronomy

Dec. 22, 2014 Rise Set
Actual Time
Civil Twilight
Nautical Twilight
Astronomical Twilight
Moon
Length of Visible Light
Length of Day
Tomorrow will be .
, % of the Moon is Illuminated

Today's Extremes

State Highs State Lows

Community

WunderPhotos

Upload Photos

1,779,560 photos uploaded!

WunderBlogs® & News

Nearby

Air Quality

  Air Quality AQ Index Pollutant
Not available.

Snow Depth

Station Depth Elevation

Earthquake Activity

City Distance Mag. Time & Date
Minimum magnitude displayed is 2.5.

Coastal Water Temperatures

Place Temperature

Nearby Weather Stations